createdAt,value
2017-04-03T00:01:11.369Z,0
2017-04-03T00:03:34.949Z,0
2017-04-03T00:05:58.408Z,0
2017-04-03T00:08:21.849Z,0
2017-04-03T00:10:45.447Z,0
2017-04-03T00:12:46.747Z,0
2017-04-03T00:15:10.337Z,0
2017-04-03T00:17:17.135Z,0
2017-04-03T00:19:40.692Z,0
2017-04-03T00:22:04.261Z,0
2017-04-03T00:24:28.553Z,0
2017-04-03T00:26:43.618Z,0
2017-04-03T00:29:07.180Z,0
2017-04-03T00:31:17.488Z,0
2017-04-03T00:33:32.646Z,0
2017-04-03T00:35:56.332Z,0
2017-04-03T00:38:19.871Z,0
2017-04-03T00:40:43.290Z,0
2017-04-03T00:43:06.856Z,0
2017-04-03T00:45:30.256Z,0
2017-04-03T00:47:53.719Z,0
2017-04-03T00:50:17.194Z,0
2017-04-03T00:52:40.758Z,0
2017-04-03T00:55:04.222Z,0
2017-04-03T00:57:14.475Z,0
2017-04-03T00:59:38.040Z,0
2017-04-03T01:02:01.430Z,0
2017-04-03T01:04:25.021Z,0
2017-04-03T01:06:48.472Z,0
2017-04-03T01:09:11.973Z,0
2017-04-03T01:11:35.390Z,0
2017-04-03T01:13:58.923Z,0
2017-04-03T01:16:22.333Z,0
2017-04-03T01:18:45.759Z,0
2017-04-03T01:21:00.862Z,0
2017-04-03T01:23:24.359Z,0
2017-04-03T01:25:47.902Z,0
2017-04-03T01:28:11.365Z,0
2017-04-03T01:30:34.848Z,0
2017-04-03T01:32:58.311Z,0
2017-04-03T01:35:21.769Z,0
2017-04-03T01:37:45.243Z,0
2017-04-03T01:40:08.923Z,0
2017-04-03T01:42:32.385Z,0
2017-04-03T01:44:55.858Z,0
2017-04-03T01:47:19.522Z,0
2017-04-03T01:49:43.093Z,0
2017-04-03T01:52:06.792Z,0
2017-04-03T01:54:30.376Z,0
2017-04-03T01:56:53.712Z,0
2017-04-03T01:59:17.172Z,0
2017-04-03T02:01:40.764Z,0
2017-04-03T02:04:04.352Z,0
2017-04-03T02:06:27.907Z,0
2017-04-03T02:08:51.470Z,0
2017-04-03T02:11:15.002Z,0
2017-04-03T02:13:38.506Z,0
2017-04-03T02:15:53.648Z,0
2017-04-03T02:18:17.154Z,0
2017-04-03T02:20:40.914Z,0
2017-04-03T02:23:04.175Z,0
2017-04-03T02:25:27.630Z,0
2017-04-03T02:27:51.212Z,0
2017-04-03T02:30:14.685Z,0
2017-04-03T02:32:38.120Z,0
2017-04-03T02:35:01.741Z,0
2017-04-03T02:37:25.212Z,0
2017-04-03T02:39:35.343Z,0
2017-04-03T02:41:58.900Z,0
2017-04-03T02:44:22.587Z,0
2017-04-03T02:46:45.921Z,0
2017-04-03T02:49:09.479Z,0
2017-04-03T02:51:32.849Z,0
2017-04-03T02:53:56.346Z,0
2017-04-03T02:56:20.058Z,0
2017-04-03T02:58:43.449Z,0
2017-04-03T03:01:06.729Z,0
2017-04-03T03:03:30.208Z,0
2017-04-03T03:05:53.677Z,0
2017-04-03T03:08:17.116Z,0
2017-04-03T03:10:40.617Z,0
2017-04-03T03:13:04.074Z,0
2017-04-03T03:15:19.134Z,0
2017-04-03T03:17:25.806Z,0
2017-04-03T03:19:49.274Z,0
2017-04-03T03:22:04.336Z,0
2017-04-03T03:24:14.044Z,0
2017-04-03T03:26:37.556Z,0
2017-04-03T03:29:01.037Z,0
2017-04-03T03:31:24.733Z,0
2017-04-03T03:33:48.342Z,0
2017-04-03T03:36:12.837Z,0
2017-04-03T03:38:36.134Z,0
2017-04-03T03:40:59.762Z,0
2017-04-03T03:43:23.198Z,0
2017-04-03T03:45:46.769Z,0
2017-04-03T03:48:10.208Z,0
2017-04-03T03:50:33.448Z,0
2017-04-03T03:52:56.941Z,0
2017-04-03T03:55:20.380Z,0
2017-04-03T03:57:43.886Z,0
2017-04-03T04:00:07.604Z,0
2017-04-03T04:02:30.949Z,0
2017-04-03T04:04:54.368Z,0
2017-04-03T04:07:17.817Z,0
2017-04-03T04:09:41.309Z,0
2017-04-03T04:12:04.769Z,0
2017-04-03T04:14:28.255Z,0
2017-04-03T04:16:51.714Z,0
2017-04-03T04:19:02.055Z,0
2017-04-03T04:21:25.742Z,0
2017-04-03T04:23:49.088Z,0
2017-04-03T04:26:12.463Z,0
2017-04-03T04:28:36.093Z,0
2017-04-03T04:30:59.395Z,0
2017-04-03T04:33:22.877Z,0
2017-04-03T04:35:46.497Z,4
2017-04-03T04:38:10.989Z,0
2017-04-03T04:40:34.436Z,0
2017-04-03T04:42:57.911Z,4
2017-04-03T04:45:21.141Z,8
2017-04-03T04:47:44.778Z,8
2017-04-03T04:50:08.391Z,8
2017-04-03T04:52:31.870Z,12
2017-04-03T04:54:55.350Z,12
2017-04-03T04:57:18.675Z,16
2017-04-03T04:59:42.044Z,20
2017-04-03T05:02:05.549Z,24
2017-04-03T05:04:29.005Z,28
2017-04-03T05:06:52.448Z,32
2017-04-03T05:09:15.918Z,36
2017-04-03T05:11:39.381Z,44
2017-04-03T05:14:02.860Z,56
2017-04-03T05:16:26.317Z,64
2017-04-03T05:18:50.045Z,72
2017-04-03T05:21:13.461Z,80
2017-04-03T05:23:36.922Z,96
2017-04-03T05:26:00.405Z,116
2017-04-03T05:28:23.872Z,136
2017-04-03T05:30:47.322Z,164
2017-04-03T05:33:10.813Z,200
2017-04-03T05:35:34.364Z,244
2017-04-03T05:37:57.864Z,308
2017-04-03T05:40:21.316Z,376
2017-04-03T05:42:44.868Z,460
2017-04-03T05:45:08.314Z,568
2017-04-03T05:47:31.942Z,700
2017-04-03T05:49:55.430Z,868
2017-04-03T05:52:18.885Z,1068
2017-04-03T05:54:42.438Z,1244
2017-04-03T05:57:05.886Z,1424
2017-04-03T05:59:29.370Z,1680
2017-04-03T06:01:53.105Z,3400
2017-04-03T06:04:16.393Z,5188
2017-04-03T06:06:40.014Z,2724
2017-04-03T06:09:03.704Z,3432
2017-04-03T06:11:27.331Z,4068
2017-04-03T06:13:51.022Z,5592
2017-04-03T06:16:14.787Z,4128
2017-04-03T06:18:38.627Z,6192
2017-04-03T06:21:02.501Z,8384
2017-04-03T06:23:26.204Z,8288
2017-04-03T06:25:50.087Z,8800
2017-04-03T06:30:15.437Z,10528
2017-04-03T06:32:39.487Z,10016
2017-04-03T06:35:03.645Z,8380
2017-04-03T06:37:27.774Z,13856
2017-04-03T06:39:51.968Z,16032
2017-04-03T06:42:08.012Z,17280
2017-04-03T06:44:24.129Z,17472
2017-04-03T06:46:48.561Z,12128
2017-04-03T06:49:12.746Z,8052
2017-04-03T06:51:37.309Z,8084
2017-04-03T06:54:01.745Z,8280
2017-04-03T06:56:12.881Z,8524
2017-04-03T06:58:37.485Z,8852
2017-04-03T07:01:01.765Z,9172
2017-04-03T07:03:26.335Z,9548
2017-04-03T07:05:50.847Z,23328
2017-04-03T07:08:15.592Z,38144
2017-04-03T07:10:31.801Z,41696
2017-04-03T07:12:56.736Z,42080
2017-04-03T07:15:22.011Z,42880
2017-04-03T07:17:47.380Z,42464
2017-04-03T07:20:13.744Z,47712
2017-04-03T07:22:39.181Z,47136
2017-04-03T07:25:04.763Z,46592
2017-04-03T07:27:30.586Z,45056
2017-04-03T07:29:57.346Z,44384
2017-04-03T07:32:23.467Z,44288
2017-04-03T07:34:49.461Z,20224
2017-04-03T07:38:51.538Z,14168
2017-04-03T07:43:02.968Z,14656
2017-04-03T07:45:29.221Z,15052
2017-04-03T07:47:55.306Z,15808
2017-04-03T07:50:21.726Z,35488
2017-04-03T07:52:47.930Z,51232
2017-04-03T07:55:14.402Z,49152
2017-04-03T07:59:43.046Z,12652
2017-04-03T08:02:09.526Z,12720
2017-04-03T08:06:20.809Z,12796
2017-04-03T08:08:46.647Z,12784
2017-04-03T08:11:12.387Z,12396
2017-04-03T08:13:37.959Z,12112
2017-04-03T08:16:03.337Z,12288
2017-04-03T08:18:28.619Z,12172
2017-04-03T08:20:53.846Z,12192
2017-04-03T08:23:18.942Z,12268
2017-04-03T08:25:45.985Z,12172
2017-04-03T08:28:10.974Z,12008
2017-04-03T08:30:36.078Z,11912
2017-04-03T08:33:00.922Z,11856
2017-04-03T08:35:26.012Z,11496
2017-04-03T08:37:51.904Z,10980
2017-04-03T08:44:20.892Z,10440
2017-04-03T08:46:45.784Z,10352
2017-04-03T08:49:10.702Z,10152
2017-04-03T08:51:36.952Z,10056
2017-04-03T08:54:02.231Z,10012
2017-04-03T08:56:28.047Z,9856
2017-04-03T08:58:52.974Z,9784
2017-04-03T09:01:18.752Z,9752
2017-04-03T09:03:43.711Z,9584
2017-04-03T09:06:00.067Z,9376
2017-04-03T09:08:24.969Z,9268
2017-04-03T09:10:50.733Z,9140
2017-04-03T09:13:16.195Z,8956
2017-04-03T09:15:41.132Z,8892
2017-04-03T09:18:06.796Z,8660
2017-04-03T09:20:31.385Z,8436
2017-04-03T09:22:57.034Z,8408
2017-04-03T09:25:21.586Z,8184
2017-04-03T09:27:46.169Z,8036
2017-04-03T09:30:10.799Z,7892
2017-04-03T09:32:35.464Z,7752
2017-04-03T09:35:00.038Z,7588
2017-04-03T09:37:24.670Z,7364
2017-04-03T09:41:25.681Z,7164
2017-04-03T09:43:51.425Z,7040
2017-04-03T09:46:17.056Z,6884
2017-04-03T09:48:41.846Z,6740
2017-04-03T09:50:58.222Z,6648
2017-04-03T09:53:29.779Z,6476
2017-04-03T09:55:54.912Z,6312
2017-04-03T09:58:20.829Z,6176
2017-04-03T10:00:45.612Z,6056
2017-04-03T10:03:10.291Z,5916
2017-04-03T10:05:34.924Z,5796
2017-04-03T10:07:59.652Z,5684
2017-04-03T10:10:25.284Z,5572
2017-04-03T10:12:49.945Z,5444
2017-04-03T10:15:14.591Z,5308
2017-04-03T10:17:39.160Z,5136
2017-04-03T10:20:03.733Z,5096
2017-04-03T10:22:28.338Z,5004
2017-04-03T10:24:52.955Z,4924
2017-04-03T10:27:17.575Z,4808
2017-04-03T10:29:42.135Z,4720
2017-04-03T10:31:58.353Z,4636
2017-04-03T10:34:22.926Z,4572
2017-04-03T10:36:47.521Z,4488
2017-04-03T10:39:12.122Z,4404
2017-04-03T10:41:36.655Z,4352
2017-04-03T10:44:01.489Z,4236
2017-04-03T10:46:26.143Z,4192
2017-04-03T10:48:51.004Z,4308
2017-04-03T10:51:15.429Z,4176
2017-04-03T10:53:23.247Z,4112
2017-04-03T10:55:48.711Z,4060
2017-04-03T10:58:13.430Z,3904
2017-04-03T11:00:37.870Z,3724
2017-04-03T11:03:00.959Z,3652
2017-04-03T11:05:25.359Z,3696
2017-04-03T11:07:49.900Z,3732
2017-04-03T11:10:14.534Z,3700
2017-04-03T11:12:39.093Z,3648
2017-04-03T11:15:03.543Z,3588
2017-04-03T11:17:28.561Z,3528
2017-04-03T11:19:53.110Z,3536
2017-04-03T11:22:17.734Z,3468
2017-04-03T11:24:42.095Z,3376
2017-04-03T11:27:06.603Z,3348
2017-04-03T11:29:30.980Z,3320
2017-04-03T11:31:55.460Z,3292
2017-04-03T11:34:20.178Z,3216
2017-04-03T11:38:21.790Z,3144
2017-04-03T11:40:37.946Z,3100
2017-04-03T11:43:02.494Z,3048
2017-04-03T11:45:26.898Z,3024
2017-04-03T11:47:51.217Z,2700
2017-04-03T11:50:15.600Z,2940
2017-04-03T11:52:41.051Z,2944
2017-04-03T11:55:05.541Z,2972
2017-04-03T11:57:30.066Z,3032
2017-04-03T11:59:54.622Z,2960
2017-04-03T12:02:20.344Z,2816
2017-04-03T12:04:37.312Z,2408
2017-04-03T12:07:01.838Z,2364
2017-04-03T12:09:26.654Z,2292
2017-04-03T12:11:51.123Z,2244
2017-04-03T12:14:15.601Z,2240
2017-04-03T12:16:41.315Z,2304
2017-04-03T12:19:06.189Z,2380
2017-04-03T12:21:32.148Z,2440
2017-04-03T12:23:57.396Z,2452
2017-04-03T12:26:22.826Z,2480
2017-04-03T12:28:48.559Z,2660
2017-04-03T12:31:13.390Z,2804
2017-04-03T12:33:37.415Z,2868
2017-04-03T12:36:01.982Z,2772
2017-04-03T12:38:27.581Z,2628
2017-04-03T12:40:52.158Z,2504
2017-04-03T12:43:17.554Z,2472
2017-04-03T12:45:33.598Z,2484
2017-04-03T12:47:59.316Z,2488
2017-04-03T12:50:24.091Z,2508
2017-04-03T12:52:49.104Z,2484
2017-04-03T12:55:13.476Z,2524
2017-04-03T12:57:39.614Z,2624
2017-04-03T13:00:06.097Z,2744
2017-04-03T13:02:30.782Z,2696
2017-04-03T13:04:55.692Z,2672
2017-04-03T13:07:20.818Z,2720
2017-04-03T13:09:48.450Z,2664
2017-04-03T13:12:12.987Z,2632
2017-04-03T13:14:37.582Z,2628
2017-04-03T13:17:02.756Z,2612
2017-04-03T13:19:13.312Z,2480
2017-04-03T13:21:37.793Z,2384
2017-04-03T13:24:02.299Z,2460
2017-04-03T13:26:12.368Z,2444
2017-04-03T13:28:36.852Z,2468
2017-04-03T13:31:01.497Z,2432
2017-04-03T13:33:25.937Z,2288
2017-04-03T13:35:50.423Z,2288
2017-04-03T13:38:14.901Z,1992
2017-04-03T13:40:39.411Z,1956
2017-04-03T13:43:03.809Z,2048
2017-04-03T13:45:28.182Z,1984
2017-04-03T13:47:52.586Z,1852
2017-04-03T13:50:17.137Z,1944
2017-04-03T13:52:41.371Z,1988
2017-04-03T13:55:05.794Z,1984
2017-04-03T13:57:31.086Z,1980
2017-04-03T13:59:55.430Z,1928
2017-04-03T14:02:19.931Z,1772
2017-04-03T14:04:44.296Z,1672
2017-04-03T14:07:08.588Z,1616
2017-04-03T14:09:32.857Z,1560
2017-04-03T14:11:57.154Z,1544
2017-04-03T14:14:21.384Z,1532
2017-04-03T14:16:45.656Z,1524
2017-04-03T14:19:09.850Z,1504
2017-04-03T14:21:34.003Z,1500
2017-04-03T14:23:58.192Z,1484
2017-04-03T14:26:22.393Z,1484
2017-04-03T14:28:46.592Z,1532
2017-04-03T14:31:10.724Z,1576
2017-04-03T14:33:34.952Z,1608
2017-04-03T14:35:59.056Z,1660
2017-04-03T14:39:59.021Z,1612
2017-04-03T14:42:23.214Z,1612
2017-04-03T14:44:47.421Z,1616
2017-04-03T14:47:11.565Z,1636
2017-04-03T14:49:35.697Z,1700
2017-04-03T14:51:59.829Z,1760
2017-04-03T14:54:24.062Z,1768
2017-04-03T14:56:48.215Z,1800
2017-04-03T14:59:12.435Z,1836
2017-04-03T15:01:36.659Z,1816
2017-04-03T15:04:00.883Z,1800
2017-04-03T15:06:25.175Z,1756
2017-04-03T15:08:41.033Z,1692
2017-04-03T15:11:05.292Z,1620
2017-04-03T15:13:30.784Z,1544
2017-04-03T15:15:55.478Z,1516
2017-04-03T15:18:20.544Z,1516
2017-04-03T15:20:45.009Z,1504
2017-04-03T15:23:10.140Z,1460
2017-04-03T15:25:34.007Z,1432
2017-04-03T15:27:58.756Z,1416
2017-04-03T15:30:24.633Z,1388
2017-04-03T15:32:50.232Z,1356
2017-04-03T15:35:05.881Z,1332
2017-04-03T15:37:30.214Z,1292
2017-04-03T15:39:54.453Z,1264
2017-04-03T15:42:18.627Z,1244
2017-04-03T15:44:42.930Z,1212
2017-04-03T15:47:07.228Z,1212
2017-04-03T15:49:31.306Z,1220
2017-04-03T15:51:55.494Z,1212
2017-04-03T15:54:19.664Z,1180
2017-04-03T15:56:43.944Z,1156
2017-04-03T15:59:10.154Z,1124
2017-04-03T16:01:34.534Z,1096
2017-04-03T16:03:58.925Z,1080
2017-04-03T16:06:23.128Z,1080
2017-04-03T16:08:49.433Z,1052
2017-04-03T16:11:14.434Z,1040
2017-04-03T16:13:38.697Z,1020
2017-04-03T16:16:04.790Z,1012
2017-04-03T16:18:30.312Z,992
2017-04-03T16:20:54.316Z,976
2017-04-03T16:23:18.452Z,960
2017-04-03T16:25:42.553Z,948
2017-04-03T16:28:06.882Z,928
2017-04-03T16:30:30.920Z,908
2017-04-03T16:32:55.124Z,896
2017-04-03T16:35:19.295Z,872
2017-04-03T16:37:43.363Z,852
2017-04-03T16:40:07.465Z,824
2017-04-03T16:42:31.652Z,800
2017-04-03T16:44:55.735Z,764
2017-04-03T16:47:19.793Z,740
2017-04-03T16:49:43.854Z,708
2017-04-03T16:52:16.858Z,680
2017-04-03T16:54:40.956Z,660
2017-04-03T16:57:05.006Z,656
2017-04-03T16:59:29.084Z,636
2017-04-03T17:01:53.244Z,608
2017-04-03T17:04:17.283Z,588
2017-04-03T17:06:41.238Z,568
2017-04-03T17:08:56.890Z,544
2017-04-03T17:11:21.035Z,520
2017-04-03T17:13:45.372Z,492
2017-04-03T17:18:37.287Z,448
2017-04-03T17:21:01.425Z,424
2017-04-03T17:23:25.520Z,400
2017-04-03T17:25:49.608Z,372
2017-04-03T17:28:13.677Z,344
2017-04-03T17:30:37.732Z,320
2017-04-03T17:33:01.831Z,292
2017-04-03T17:35:25.922Z,264
2017-04-03T17:37:50.041Z,236
2017-04-03T17:40:14.129Z,212
2017-04-03T17:42:38.014Z,180
2017-04-03T17:44:53.581Z,156
2017-04-03T17:47:17.683Z,136
2017-04-03T17:49:41.616Z,116
2017-04-03T17:51:57.169Z,96
2017-04-03T17:54:07.033Z,76
2017-04-03T17:56:31.105Z,64
2017-04-03T17:58:55.083Z,48
2017-04-03T18:01:19.052Z,40
2017-04-03T18:03:43.025Z,28
2017-04-03T18:06:07.026Z,20
2017-04-03T18:08:30.996Z,12
2017-04-03T18:10:54.975Z,8
2017-04-03T18:14:55.832Z,4
2017-04-03T18:17:19.790Z,0
2017-04-03T18:19:43.681Z,4
2017-04-03T18:21:59.230Z,0
2017-04-03T18:24:23.243Z,0
2017-04-03T18:26:38.822Z,0
2017-04-03T18:29:02.839Z,0
2017-04-03T18:31:26.811Z,0
2017-04-03T18:33:50.732Z,0
2017-04-03T18:36:14.663Z,0
2017-04-03T18:38:38.545Z,0
2017-04-03T18:41:02.474Z,0
2017-04-03T18:43:26.573Z,0
2017-04-03T18:45:50.272Z,0
2017-04-03T18:48:14.254Z,0
2017-04-03T18:50:38.070Z,0
2017-04-03T18:53:02.041Z,0
2017-04-03T18:55:26.009Z,0
2017-04-03T18:57:50.069Z,0
2017-04-03T19:00:13.949Z,0
2017-04-03T19:02:37.819Z,0
2017-04-03T19:05:01.694Z,0
2017-04-03T19:07:29.507Z,0
2017-04-03T19:09:55.505Z,0
2017-04-03T19:12:18.695Z,0
2017-04-03T19:14:42.825Z,0
2017-04-03T19:17:07.169Z,0
2017-04-03T19:19:31.031Z,0
2017-04-03T19:21:54.951Z,0
2017-04-03T19:26:20.861Z,0
2017-04-03T19:28:44.661Z,0
2017-04-03T19:31:08.646Z,0
2017-04-03T19:33:32.469Z,0
2017-04-03T19:35:56.903Z,0
2017-04-03T19:38:20.376Z,0
2017-04-03T19:40:44.242Z,0
2017-04-03T19:43:08.048Z,0
2017-04-03T19:45:31.909Z,0
2017-04-03T19:47:55.795Z,0
2017-04-03T19:50:20.612Z,0
2017-04-03T19:52:44.443Z,0
2017-04-03T19:54:59.966Z,0
2017-04-03T19:57:25.463Z,0
2017-04-03T19:59:50.270Z,0
2017-04-03T20:02:14.163Z,0
2017-04-03T20:04:38.059Z,0
2017-04-03T20:07:01.920Z,0
2017-04-03T20:09:25.736Z,0
2017-04-03T20:11:49.586Z,0
2017-04-03T20:14:13.436Z,0
2017-04-03T20:16:37.235Z,0
2017-04-03T20:19:01.107Z,0
2017-04-03T20:21:24.923Z,0
2017-04-03T20:23:48.839Z,0
2017-04-03T20:26:05.143Z,0
2017-04-03T20:28:15.926Z,0
2017-04-03T20:30:28.358Z,0
2017-04-03T20:32:53.344Z,0
2017-04-03T20:35:17.361Z,0
2017-04-03T20:37:41.274Z,0
2017-04-03T20:40:05.045Z,0
2017-04-03T20:42:30.234Z,0
2017-04-03T20:44:53.981Z,0
2017-04-03T20:49:28.049Z,0
2017-04-03T20:51:51.781Z,0
2017-04-03T20:54:15.554Z,0
2017-04-03T20:56:39.652Z,0
2017-04-03T20:59:03.304Z,0
2017-04-03T21:01:27.008Z,0
2017-04-03T21:03:51.792Z,0
2017-04-03T21:06:15.572Z,0
2017-04-03T21:08:30.928Z,0
2017-04-03T21:10:54.686Z,0
2017-04-03T21:13:18.469Z,0
2017-04-03T21:15:42.170Z,0
2017-04-03T21:18:05.974Z,0
2017-04-03T21:20:29.611Z,0
2017-04-03T21:22:53.261Z,0
2017-04-03T21:25:16.994Z,0
2017-04-03T21:27:40.619Z,0
2017-04-03T21:30:04.330Z,0
2017-04-03T21:32:28.090Z,0
2017-04-03T21:34:51.746Z,0
2017-04-03T21:37:15.512Z,0
2017-04-03T21:39:39.207Z,0
2017-04-03T21:42:02.848Z,0
2017-04-03T21:44:26.503Z,0
2017-04-03T21:46:50.188Z,0
2017-04-03T21:51:15.748Z,0
2017-04-03T21:53:39.485Z,0
2017-04-03T21:56:03.364Z,0
2017-04-03T21:58:27.011Z,0
2017-04-03T22:00:50.701Z,0
2017-04-03T22:03:14.737Z,0
2017-04-03T22:05:38.292Z,0
2017-04-03T22:08:02.378Z,0
2017-04-03T22:10:26.343Z,0
2017-04-03T22:12:49.768Z,0
2017-04-03T22:15:14.437Z,0
2017-04-03T22:17:38.071Z,0
2017-04-03T22:20:02.043Z,0
2017-04-03T22:22:25.612Z,0
2017-04-03T22:24:49.293Z,0
2017-04-03T22:27:12.958Z,0
2017-04-03T22:29:36.635Z,0
2017-04-03T22:32:00.320Z,0
2017-04-03T22:34:23.966Z,0
2017-04-03T22:36:47.635Z,0
2017-04-03T22:39:11.402Z,0
2017-04-03T22:41:35.042Z,0
2017-04-03T22:43:59.696Z,0
2017-04-03T22:46:23.384Z,0
2017-04-03T22:48:47.032Z,0
2017-04-03T22:51:10.699Z,0
2017-04-03T22:53:34.375Z,0
2017-04-03T22:55:58.057Z,0
2017-04-03T22:58:21.726Z,0
2017-04-03T23:00:45.441Z,0
2017-04-03T23:05:10.755Z,0
2017-04-03T23:07:34.385Z,0
2017-04-03T23:09:58.069Z,0
2017-04-03T23:12:21.724Z,0
2017-04-03T23:14:45.340Z,0
2017-04-03T23:17:08.861Z,0
2017-04-03T23:19:32.492Z,0
2017-04-03T23:21:56.099Z,0
2017-04-03T23:24:20.538Z,0
2017-04-03T23:26:43.991Z,0
2017-04-03T23:29:07.625Z,0
2017-04-03T23:31:31.092Z,0
2017-04-03T23:33:54.683Z,0
2017-04-03T23:36:18.242Z,0
2017-04-03T23:38:41.794Z,0
2017-04-03T23:40:52.046Z,0
2017-04-03T23:43:15.646Z,0
2017-04-03T23:45:39.199Z,0
2017-04-03T23:48:02.831Z,0
2017-04-03T23:50:26.472Z,0
2017-04-03T23:52:50.003Z,0
2017-04-03T23:55:05.097Z,0
2017-04-03T23:57:28.744Z,0
2017-04-03T23:59:52.212Z,0
